Terminal Aerodrome Forecast
Issued by NWS Paducah, KY

Home | Current Version | Previous Version | Text Only | Print | Product List | Glossary On
Versions: 1 2 3 4 5 6 7 8 9 10 11
000
FTUS43 KPAH 262200 AAA
TAFPAH
TAF AMD
KPAH 262233Z 2623/2718 17008KT P6SM BKN060
     FM270000 18007KT P6SM BKN045 PROB30 2708/2712 -SHRA BKN025
     FM271200 17007KT 4SM SHRA BR OVC015=

USA.gov is the U.S. government's official web portal to all federal, state and local government web resources and services.